To NAV CANADA Home Page Login to a new session Search on AWWS site Feedback and Comments Disclaimer Vers la page française équivalente Tips FAQ What's new on the site To the Forecasts and Observations / NOTAM section To "File a Flight Plan" website Publications and other links Update of the User's profile FIC Telephone Numbers My Weather Data Folder Route Weather Data Regional Weather Data Local Weather Data To the Forecasts and Observations / NOTAM section
Request Generated 02/27/2015 at 05:57:50 UTC . Weather information available at that time is displayed.

METAR/TAF

ST. ANTHONY/NL    (show WxCam)

METAR CYAY 270500Z AUTO 30004KT 9SM FEW055 M17/M18 A2979 RMK SLP090=
METAR CYAY 270400Z AUTO 29009KT 9SM CLR M16/M17 A2978 RMK SLP087=
METAR CYAY 270300Z AUTO 29005KT 9SM FEW037 M14/M15 A2977 RMK SLP085=

TAF CYAY 270138Z 2702/2714 26006KT P6SM FEW015 TEMPO 2702/2714 5SM
-SN BKN015
RMK FCST BASED ON AUTO OBS. NXT FCST BY 270800Z=
Your time UTC time
Weather data provided by Environment Canada and NAV CANADA